sensor_id;sensor_type;location;lat;lon;timestamp;P1;durP1;ratioP1;P2;durP2;ratioP2
50213;SDS011;36103;54.176;12.070;2022-11-20T00:00:48;3.27;;;2.60;;
50213;SDS011;36103;54.176;12.070;2022-11-20T00:01:49;4.77;;;3.03;;
50213;SDS011;36103;54.176;12.070;2022-11-20T00:02:51;3.97;;;2.80;;
50213;SDS011;36103;54.176;12.070;2022-11-20T00:03:53;3.37;;;2.53;;
50213;SDS011;36103;54.176;12.070;2022-11-20T00:04:54;3.30;;;2.43;;
50213;SDS011;36103;54.176;12.070;2022-11-20T00:05:58;6.53;;;3.00;;
50213;SDS011;36103;54.176;12.070;2022-11-20T00:06:59;6.03;;;3.33;;
50213;SDS011;36103;54.176;12.070;2022-11-20T00:08:01;3.50;;;2.40;;
50213;SDS011;36103;54.176;12.070;2022-11-20T00:09:01;3.70;;;2.33;;
50213;SDS011;36103;54.176;12.070;2022-11-20T00:10:03;5.00;;;2.73;;
50213;SDS011;36103;54.176;12.070;2022-11-20T00:11:04;3.13;;;2.43;;
50213;SDS011;36103;54.176;12.070;2022-11-20T00:12:06;4.40;;;2.83;;
50213;SDS011;36103;54.176;12.070;2022-11-20T00:13:07;5.30;;;2.90;;
50213;SDS011;36103;54.176;12.070;2022-11-20T00:14:12;5.90;;;2.77;;
50213;SDS011;36103;54.176;12.070;2022-11-20T00:15:13;2.90;;;2.40;;
50213;SDS011;36103;54.176;12.070;2022-11-20T00:16:15;3.17;;;2.27;;
50213;SDS011;36103;54.176;12.070;2022-11-20T00:17:17;3.73;;;2.23;;
50213;SDS011;36103;54.176;12.070;2022-11-20T00:18:19;5.00;;;2.40;;
50213;SDS011;36103;54.176;12.070;2022-11-20T00:19:20;3.57;;;2.37;;
50213;SDS011;36103;54.176;12.070;2022-11-20T00:20:22;4.43;;;2.60;;
50213;SDS011;36103;54.176;12.070;2022-11-20T00:21:23;5.00;;;2.87;;
50213;SDS011;36103;54.176;12.070;2022-11-20T00:22:25;3.43;;;2.40;;
50213;SDS011;36103;54.176;12.070;2022-11-20T00:23:25;3.10;;;2.37;;
50213;SDS011;36103;54.176;12.070;2022-11-20T00:24:26;5.67;;;3.07;;
50213;SDS011;36103;54.176;12.070;2022-11-20T00:25:28;3.67;;;2.20;;
50213;SDS011;36103;54.176;12.070;2022-11-20T00:26:28;2.87;;;2.07;;
50213;SDS011;36103;54.176;12.070;2022-11-20T00:27:30;2.63;;;2.13;;
50213;SDS011;36103;54.176;12.070;2022-11-20T00:28:30;3.77;;;2.30;;
50213;SDS011;36103;54.176;12.070;2022-11-20T00:29:32;3.40;;;2.37;;
50213;SDS011;36103;54.176;12.070;2022-11-20T00:30:32;3.70;;;2.30;;
50213;SDS011;36103;54.176;12.070;2022-11-20T00:31:34;3.73;;;2.57;;
50213;SDS011;36103;54.176;12.070;2022-11-20T00:32:35;2.93;;;2.30;;
50213;SDS011;36103;54.176;12.070;2022-11-20T00:33:37;2.80;;;2.17;;
50213;SDS011;36103;54.176;12.070;2022-11-20T00:34:38;3.60;;;2.27;;
50213;SDS011;36103;54.176;12.070;2022-11-20T00:35:39;3.83;;;2.50;;
50213;SDS011;36103;54.176;12.070;2022-11-20T00:36:40;4.17;;;2.60;;
50213;SDS011;36103;54.176;12.070;2022-11-20T00:37:41;3.83;;;2.77;;
50213;SDS011;36103;54.176;12.070;2022-11-20T00:38:42;3.33;;;2.30;;
50213;SDS011;36103;54.176;12.070;2022-11-20T00:39:44;3.50;;;2.27;;
50213;SDS011;36103;54.176;12.070;2022-11-20T00:40:44;4.17;;;2.33;;
50213;SDS011;36103;54.176;12.070;2022-11-20T00:41:46;4.87;;;2.40;;
50213;SDS011;36103;54.176;12.070;2022-11-20T00:42:46;3.30;;;2.30;;
50213;SDS011;36103;54.176;12.070;2022-11-20T00:43:48;2.87;;;2.43;;
50213;SDS011;36103;54.176;12.070;2022-11-20T00:44:48;3.37;;;2.40;;
50213;SDS011;36103;54.176;12.070;2022-11-20T00:45:49;3.40;;;2.10;;
50213;SDS011;36103;54.176;12.070;2022-11-20T00:46:50;3.47;;;2.33;;
50213;SDS011;36103;54.176;12.070;2022-11-20T00:47:51;4.20;;;2.23;;
50213;SDS011;36103;54.176;12.070;2022-11-20T00:48:53;3.10;;;2.10;;
50213;SDS011;36103;54.176;12.070;2022-11-20T00:49:54;2.80;;;2.00;;
50213;SDS011;36103;54.176;12.070;2022-11-20T00:50:55;3.60;;;2.60;;
50213;SDS011;36103;54.176;12.070;2022-11-20T00:51:56;3.27;;;2.07;;
50213;SDS011;36103;54.176;12.070;2022-11-20T00:52:57;4.33;;;2.30;;
50213;SDS011;36103;54.176;12.070;2022-11-20T00:53:59;3.60;;;2.13;;
50213;SDS011;36103;54.176;12.070;2022-11-20T00:55:00;2.73;;;1.87;;
50213;SDS011;36103;54.176;12.070;2022-11-20T00:56:02;3.20;;;2.27;;
50213;SDS011;36103;54.176;12.070;2022-11-20T00:57:04;2.80;;;1.90;;
50213;SDS011;36103;54.176;12.070;2022-11-20T00:58:06;2.40;;;1.80;;
50213;SDS011;36103;54.176;12.070;2022-11-20T00:59:08;2.53;;;2.00;;
50213;SDS011;36103;54.176;12.070;2022-11-20T01:00:09;2.90;;;2.17;;
50213;SDS011;36103;54.176;12.070;2022-11-20T01:01:11;3.33;;;1.80;;
50213;SDS011;36103;54.176;12.070;2022-11-20T01:02:13;3.30;;;2.00;;
50213;SDS011;36103;54.176;12.070;2022-11-20T01:03:16;2.73;;;1.80;;
50213;SDS011;36103;54.176;12.070;2022-11-20T01:04:19;3.53;;;2.03;;
50213;SDS011;36103;54.176;12.070;2022-11-20T01:05:20;2.67;;;1.97;;
50213;SDS011;36103;54.176;12.070;2022-11-20T01:06:21;2.40;;;2.10;;
50213;SDS011;36103;54.176;12.070;2022-11-20T01:07:24;2.73;;;1.80;;
50213;SDS011;36103;54.176;12.070;2022-11-20T01:08:24;3.23;;;2.30;;
50213;SDS011;36103;54.176;12.070;2022-11-20T01:09:27;3.10;;;2.13;;
50213;SDS011;36103;54.176;12.070;2022-11-20T01:10:27;3.17;;;1.93;;
50213;SDS011;36103;54.176;12.070;2022-11-20T01:11:29;3.57;;;1.90;;
50213;SDS011;36103;54.176;12.070;2022-11-20T01:12:30;4.30;;;2.10;;
50213;SDS011;36103;54.176;12.070;2022-11-20T01:13:32;3.17;;;2.37;;
50213;SDS011;36103;54.176;12.070;2022-11-20T01:14:38;2.70;;;1.87;;
50213;SDS011;36103;54.176;12.070;2022-11-20T01:15:39;3.00;;;2.10;;
50213;SDS011;36103;54.176;12.070;2022-11-20T01:16:40;2.60;;;1.90;;
50213;SDS011;36103;54.176;12.070;2022-11-20T01:17:43;3.43;;;2.30;;
50213;SDS011;36103;54.176;12.070;2022-11-20T01:18:44;2.77;;;1.90;;
50213;SDS011;36103;54.176;12.070;2022-11-20T01:19:49;2.20;;;1.97;;
50213;SDS011;36103;54.176;12.070;2022-11-20T01:20:49;4.50;;;1.80;;
50213;SDS011;36103;54.176;12.070;2022-11-20T01:21:51;2.63;;;1.90;;
50213;SDS011;36103;54.176;12.070;2022-11-20T01:22:53;2.17;;;1.90;;
50213;SDS011;36103;54.176;12.070;2022-11-20T01:23:54;3.93;;;1.93;;
50213;SDS011;36103;54.176;12.070;2022-11-20T01:24:55;2.67;;;1.90;;
50213;SDS011;36103;54.176;12.070;2022-11-20T01:25:56;2.03;;;1.70;;
50213;SDS011;36103;54.176;12.070;2022-11-20T01:26:57;3.30;;;2.20;;
50213;SDS011;36103;54.176;12.070;2022-11-20T01:27:59;2.60;;;2.03;;
50213;SDS011;36103;54.176;12.070;2022-11-20T01:28:59;2.90;;;2.00;;
50213;SDS011;36103;54.176;12.070;2022-11-20T01:30:01;2.63;;;2.00;;
50213;SDS011;36103;54.176;12.070;2022-11-20T01:31:10;4.07;;;1.87;;
50213;SDS011;36103;54.176;12.070;2022-11-20T01:32:11;3.13;;;2.10;;
50213;SDS011;36103;54.176;12.070;2022-11-20T01:33:13;3.77;;;1.90;;
50213;SDS011;36103;54.176;12.070;2022-11-20T01:34:14;2.57;;;2.03;;
50213;SDS011;36103;54.176;12.070;2022-11-20T01:35:18;3.03;;;1.80;;
50213;SDS011;36103;54.176;12.070;2022-11-20T01:36:20;2.70;;;2.17;;
50213;SDS011;36103;54.176;12.070;2022-11-20T01:37:22;3.13;;;2.00;;
50213;SDS011;36103;54.176;12.070;2022-11-20T01:38:22;2.27;;;1.77;;
50213;SDS011;36103;54.176;12.070;2022-11-20T01:39:25;1.90;;;1.37;;
50213;SDS011;36103;54.176;12.070;2022-11-20T01:40:26;2.67;;;2.00;;
50213;SDS011;36103;54.176;12.070;2022-11-20T01:41:28;3.03;;;2.20;;
50213;SDS011;36103;54.176;12.070;2022-11-20T01:42:52;3.10;;;2.10;;
50213;SDS011;36103;54.176;12.070;2022-11-20T01:44:21;3.10;;;1.73;;
50213;SDS011;36103;54.176;12.070;2022-11-20T01:46:50;2.20;;;1.90;;
50213;SDS011;36103;54.176;12.070;2022-11-20T01:47:54;1.87;;;1.50;;
50213;SDS011;36103;54.176;12.070;2022-11-20T01:48:56;2.97;;;1.90;;
50213;SDS011;36103;54.176;12.070;2022-11-20T01:49:59;2.80;;;2.00;;
50213;SDS011;36103;54.176;12.070;2022-11-20T01:51:10;2.37;;;1.50;;
50213;SDS011;36103;54.176;12.070;2022-11-20T01:52:14;2.10;;;1.70;;
50213;SDS011;36103;54.176;12.070;2022-11-20T01:53:17;3.40;;;2.20;;
50213;SDS011;36103;54.176;12.070;2022-11-20T01:54:19;1.80;;;1.43;;
50213;SDS011;36103;54.176;12.070;2022-11-20T01:55:23;2.67;;;1.80;;
50213;SDS011;36103;54.176;12.070;2022-11-20T01:56:25;2.37;;;1.70;;
50213;SDS011;36103;54.176;12.070;2022-11-20T01:57:28;2.00;;;1.77;;
50213;SDS011;36103;54.176;12.070;2022-11-20T01:58:31;2.00;;;1.70;;
50213;SDS011;36103;54.176;12.070;2022-11-20T01:59:35;2.20;;;1.73;;
50213;SDS011;36103;54.176;12.070;2022-11-20T02:00:38;2.73;;;1.90;;
50213;SDS011;36103;54.176;12.070;2022-11-20T02:01:38;3.00;;;1.70;;
50213;SDS011;36103;54.176;12.070;2022-11-20T02:02:40;1.90;;;1.50;;
50213;SDS011;36103;54.176;12.070;2022-11-20T02:03:43;3.23;;;1.73;;
50213;SDS011;36103;54.176;12.070;2022-11-20T02:04:45;2.20;;;1.70;;
50213;SDS011;36103;54.176;12.070;2022-11-20T02:05:47;2.07;;;1.53;;
50213;SDS011;36103;54.176;12.070;2022-11-20T02:06:53;2.00;;;1.33;;
50213;SDS011;36103;54.176;12.070;2022-11-20T02:07:57;3.13;;;1.80;;
50213;SDS011;36103;54.176;12.070;2022-11-20T02:08:59;2.23;;;1.60;;
50213;SDS011;36103;54.176;12.070;2022-11-20T02:10:00;2.30;;;1.60;;
50213;SDS011;36103;54.176;12.070;2022-11-20T02:11:01;2.17;;;1.60;;
50213;SDS011;36103;54.176;12.070;2022-11-20T02:12:03;2.60;;;1.63;;
50213;SDS011;36103;54.176;12.070;2022-11-20T02:13:03;2.50;;;1.70;;
50213;SDS011;36103;54.176;12.070;2022-11-20T02:14:23;3.17;;;1.73;;
50213;SDS011;36103;54.176;12.070;2022-11-20T02:15:24;3.10;;;2.07;;
50213;SDS011;36103;54.176;12.070;2022-11-20T02:16:25;2.63;;;1.73;;
50213;SDS011;36103;54.176;12.070;2022-11-20T02:17:28;2.40;;;1.80;;
50213;SDS011;36103;54.176;12.070;2022-11-20T02:18:29;2.23;;;1.70;;
50213;SDS011;36103;54.176;12.070;2022-11-20T02:19:31;2.97;;;1.60;;
50213;SDS011;36103;54.176;12.070;2022-11-20T02:20:31;2.53;;;1.53;;
50213;SDS011;36103;54.176;12.070;2022-11-20T02:21:34;2.30;;;1.80;;
50213;SDS011;36103;54.176;12.070;2022-11-20T02:22:43;2.40;;;1.60;;
50213;SDS011;36103;54.176;12.070;2022-11-20T02:23:54;1.83;;;1.30;;
50213;SDS011;36103;54.176;12.070;2022-11-20T02:25:00;2.03;;;1.63;;
50213;SDS011;36103;54.176;12.070;2022-11-20T02:26:02;1.70;;;1.57;;
50213;SDS011;36103;54.176;12.070;2022-11-20T02:27:07;2.50;;;1.50;;
50213;SDS011;36103;54.176;12.070;2022-11-20T02:28:10;2.47;;;1.57;;
50213;SDS011;36103;54.176;12.070;2022-11-20T02:29:10;2.20;;;1.50;;
50213;SDS011;36103;54.176;12.070;2022-11-20T02:30:12;2.10;;;1.30;;
50213;SDS011;36103;54.176;12.070;2022-11-20T02:31:13;2.33;;;1.60;;
50213;SDS011;36103;54.176;12.070;2022-11-20T02:32:18;1.80;;;1.20;;
50213;SDS011;36103;54.176;12.070;2022-11-20T02:33:19;2.43;;;1.47;;
50213;SDS011;36103;54.176;12.070;2022-11-20T02:34:20;1.90;;;1.50;;
50213;SDS011;36103;54.176;12.070;2022-11-20T02:35:40;1.83;;;1.33;;
50213;SDS011;36103;54.176;12.070;2022-11-20T02:36:43;1.70;;;1.43;;
50213;SDS011;36103;54.176;12.070;2022-11-20T02:37:46;1.83;;;1.40;;
50213;SDS011;36103;54.176;12.070;2022-11-20T02:38:48;1.93;;;1.43;;
50213;SDS011;36103;54.176;12.070;2022-11-20T02:39:52;1.90;;;1.50;;
50213;SDS011;36103;54.176;12.070;2022-11-20T02:40:52;1.97;;;1.20;;
50213;SDS011;36103;54.176;12.070;2022-11-20T02:41:54;1.97;;;1.50;;
50213;SDS011;36103;54.176;12.070;2022-11-20T02:42:56;1.80;;;1.37;;
50213;SDS011;36103;54.176;12.070;2022-11-20T02:43:58;2.83;;;1.60;;
50213;SDS011;36103;54.176;12.070;2022-11-20T02:44:58;1.77;;;1.40;;
50213;SDS011;36103;54.176;12.070;2022-11-20T02:45:59;1.90;;;1.53;;
50213;SDS011;36103;54.176;12.070;2022-11-20T02:47:00;1.97;;;1.43;;
50213;SDS011;36103;54.176;12.070;2022-11-20T02:48:01;3.17;;;1.47;;
50213;SDS011;36103;54.176;12.070;2022-11-20T02:49:02;2.10;;;1.23;;
50213;SDS011;36103;54.176;12.070;2022-11-20T02:50:04;2.67;;;1.50;;
50213;SDS011;36103;54.176;12.070;2022-11-20T02:51:05;2.07;;;1.60;;
50213;SDS011;36103;54.176;12.070;2022-11-20T02:52:07;1.90;;;1.40;;
50213;SDS011;36103;54.176;12.070;2022-11-20T02:53:07;2.07;;;1.70;;
50213;SDS011;36103;54.176;12.070;2022-11-20T02:54:09;2.23;;;1.47;;
50213;SDS011;36103;54.176;12.070;2022-11-20T02:55:10;1.47;;;1.30;;
50213;SDS011;36103;54.176;12.070;2022-11-20T02:56:12;1.70;;;1.20;;
50213;SDS011;36103;54.176;12.070;2022-11-20T02:57:12;1.73;;;1.30;;
50213;SDS011;36103;54.176;12.070;2022-11-20T02:58:14;1.90;;;1.30;;
50213;SDS011;36103;54.176;12.070;2022-11-20T02:59:14;1.73;;;1.30;;
50213;SDS011;36103;54.176;12.070;2022-11-20T03:00:16;1.40;;;1.20;;
50213;SDS011;36103;54.176;12.070;2022-11-20T03:01:16;4.27;;;1.50;;
50213;SDS011;36103;54.176;12.070;2022-11-20T03:02:18;2.60;;;1.43;;
50213;SDS011;36103;54.176;12.070;2022-11-20T03:03:18;1.83;;;1.40;;
50213;SDS011;36103;54.176;12.070;2022-11-20T03:04:21;2.07;;;1.20;;
50213;SDS011;36103;54.176;12.070;2022-11-20T03:05:21;1.67;;;1.30;;
50213;SDS011;36103;54.176;12.070;2022-11-20T03:06:23;2.17;;;1.60;;
50213;SDS011;36103;54.176;12.070;2022-11-20T03:07:23;2.93;;;1.43;;
50213;SDS011;36103;54.176;12.070;2022-11-20T03:08:25;1.40;;;1.20;;
50213;SDS011;36103;54.176;12.070;2022-11-20T03:09:25;2.07;;;1.40;;
50213;SDS011;36103;54.176;12.070;2022-11-20T03:10:28;2.13;;;1.20;;
50213;SDS011;36103;54.176;12.070;2022-11-20T03:11:28;2.47;;;1.50;;
50213;SDS011;36103;54.176;12.070;2022-11-20T03:12:30;2.30;;;1.23;;
50213;SDS011;36103;54.176;12.070;2022-11-20T03:13:30;1.87;;;1.27;;
50213;SDS011;36103;54.176;12.070;2022-11-20T03:14:31;1.93;;;1.33;;
50213;SDS011;36103;54.176;12.070;2022-11-20T03:15:32;2.67;;;1.40;;
50213;SDS011;36103;54.176;12.070;2022-11-20T03:16:33;2.17;;;1.30;;
50213;SDS011;36103;54.176;12.070;2022-11-20T03:17:34;2.43;;;1.30;;
50213;SDS011;36103;54.176;12.070;2022-11-20T03:18:35;1.50;;;1.27;;
50213;SDS011;36103;54.176;12.070;2022-11-20T03:19:36;2.07;;;1.20;;
50213;SDS011;36103;54.176;12.070;2022-11-20T03:20:37;2.07;;;1.30;;
50213;SDS011;36103;54.176;12.070;2022-11-20T03:21:37;1.33;;;1.20;;
50213;SDS011;36103;54.176;12.070;2022-11-20T03:22:39;2.00;;;1.20;;
50213;SDS011;36103;54.176;12.070;2022-11-20T03:23:39;2.10;;;1.50;;
50213;SDS011;36103;54.176;12.070;2022-11-20T03:24:41;1.67;;;1.40;;
50213;SDS011;36103;54.176;12.070;2022-11-20T03:25:43;2.10;;;1.47;;
50213;SDS011;36103;54.176;12.070;2022-11-20T03:26:45;1.67;;;1.20;;
50213;SDS011;36103;54.176;12.070;2022-11-20T03:27:45;1.90;;;1.50;;
50213;SDS011;36103;54.176;12.070;2022-11-20T03:28:47;2.40;;;1.40;;
50213;SDS011;36103;54.176;12.070;2022-11-20T03:29:48;1.47;;;1.17;;
50213;SDS011;36103;54.176;12.070;2022-11-20T03:30:50;1.83;;;1.10;;
50213;SDS011;36103;54.176;12.070;2022-11-20T03:31:50;1.37;;;1.10;;
50213;SDS011;36103;54.176;12.070;2022-11-20T03:32:52;2.23;;;1.50;;
50213;SDS011;36103;54.176;12.070;2022-11-20T03:33:53;1.40;;;1.30;;
50213;SDS011;36103;54.176;12.070;2022-11-20T03:34:55;1.67;;;1.20;;
50213;SDS011;36103;54.176;12.070;2022-11-20T03:35:56;1.17;;;1.00;;
50213;SDS011;36103;54.176;12.070;2022-11-20T03:37:02;1.77;;;1.20;;
50213;SDS011;36103;54.176;12.070;2022-11-20T03:38:02;1.43;;;1.17;;
50213;SDS011;36103;54.176;12.070;2022-11-20T03:39:03;1.53;;;1.40;;
50213;SDS011;36103;54.176;12.070;2022-11-20T03:40:04;2.43;;;1.30;;
50213;SDS011;36103;54.176;12.070;2022-11-20T03:41:09;1.40;;;1.30;;
50213;SDS011;36103;54.176;12.070;2022-11-20T03:42:10;1.17;;;1.07;;
50213;SDS011;36103;54.176;12.070;2022-11-20T03:43:32;1.73;;;1.10;;
50213;SDS011;36103;54.176;12.070;2022-11-20T03:44:32;1.70;;;1.20;;
50213;SDS011;36103;54.176;12.070;2022-11-20T03:45:34;1.83;;;1.33;;
50213;SDS011;36103;54.176;12.070;2022-11-20T03:46:34;1.70;;;1.20;;
50213;SDS011;36103;54.176;12.070;2022-11-20T03:47:36;1.70;;;1.13;;
50213;SDS011;36103;54.176;12.070;2022-11-20T03:48:42;1.57;;;1.20;;
50213;SDS011;36103;54.176;12.070;2022-11-20T03:49:43;1.60;;;1.13;;
50213;SDS011;36103;54.176;12.070;2022-11-20T03:50:44;1.33;;;1.10;;
50213;SDS011;36103;54.176;12.070;2022-11-20T03:51:47;1.87;;;1.10;;
50213;SDS011;36103;54.176;12.070;2022-11-20T03:52:48;2.07;;;1.20;;
50213;SDS011;36103;54.176;12.070;2022-11-20T03:53:49;1.83;;;1.20;;
50213;SDS011;36103;54.176;12.070;2022-11-20T03:54:51;1.53;;;1.10;;
50213;SDS011;36103;54.176;12.070;2022-11-20T03:55:52;1.57;;;1.33;;
50213;SDS011;36103;54.176;12.070;2022-11-20T03:56:54;1.73;;;1.40;;
50213;SDS011;36103;54.176;12.070;2022-11-20T03:57:55;1.57;;;1.10;;
50213;SDS011;36103;54.176;12.070;2022-11-20T03:58:56;1.87;;;1.30;;
50213;SDS011;36103;54.176;12.070;2022-11-20T03:59:58;1.90;;;1.30;;
50213;SDS011;36103;54.176;12.070;2022-11-20T04:01:03;1.50;;;1.20;;
50213;SDS011;36103;54.176;12.070;2022-11-20T04:02:05;1.47;;;1.07;;
50213;SDS011;36103;54.176;12.070;2022-11-20T04:03:06;1.40;;;1.00;;
50213;SDS011;36103;54.176;12.070;2022-11-20T04:04:07;1.30;;;1.10;;
50213;SDS011;36103;54.176;12.070;2022-11-20T04:05:08;1.03;;;0.93;;
50213;SDS011;36103;54.176;12.070;2022-11-20T04:06:10;1.43;;;1.30;;
50213;SDS011;36103;54.176;12.070;2022-11-20T04:07:11;1.93;;;1.23;;
50213;SDS011;36103;54.176;12.070;2022-11-20T04:08:12;1.50;;;1.27;;
50213;SDS011;36103;54.176;12.070;2022-11-20T04:09:13;1.70;;;1.10;;
50213;SDS011;36103;54.176;12.070;2022-11-20T04:10:15;1.63;;;1.10;;
50213;SDS011;36103;54.176;12.070;2022-11-20T04:11:16;1.30;;;1.03;;
50213;SDS011;36103;54.176;12.070;2022-11-20T04:12:20;2.03;;;1.10;;
50213;SDS011;36103;54.176;12.070;2022-11-20T04:13:20;1.30;;;1.00;;
50213;SDS011;36103;54.176;12.070;2022-11-20T04:14:22;1.30;;;1.20;;
50213;SDS011;36103;54.176;12.070;2022-11-20T04:15:22;3.37;;;1.10;;
50213;SDS011;36103;54.176;12.070;2022-11-20T04:16:24;1.83;;;1.20;;
50213;SDS011;36103;54.176;12.070;2022-11-20T04:17:25;1.10;;;1.00;;
50213;SDS011;36103;54.176;12.070;2022-11-20T04:18:27;1.20;;;0.90;;
50213;SDS011;36103;54.176;12.070;2022-11-20T04:19:27;1.70;;;1.13;;
50213;SDS011;36103;54.176;12.070;2022-11-20T04:20:28;1.17;;;1.03;;
50213;SDS011;36103;54.176;12.070;2022-11-20T04:21:29;1.87;;;1.30;;
50213;SDS011;36103;54.176;12.070;2022-11-20T04:22:30;1.47;;;0.93;;
50213;SDS011;36103;54.176;12.070;2022-11-20T04:23:31;1.47;;;1.07;;
50213;SDS011;36103;54.176;12.070;2022-11-20T04:24:32;1.37;;;1.20;;
50213;SDS011;36103;54.176;12.070;2022-11-20T04:25:32;1.60;;;1.00;;
50213;SDS011;36103;54.176;12.070;2022-11-20T04:26:34;1.43;;;1.10;;
50213;SDS011;36103;54.176;12.070;2022-11-20T04:27:36;1.47;;;1.07;;
50213;SDS011;36103;54.176;12.070;2022-11-20T04:28:37;1.53;;;1.00;;
50213;SDS011;36103;54.176;12.070;2022-11-20T04:29:38;1.13;;;0.90;;
50213;SDS011;36103;54.176;12.070;2022-11-20T04:30:39;1.13;;;1.00;;
50213;SDS011;36103;54.176;12.070;2022-11-20T04:31:40;1.30;;;1.10;;
50213;SDS011;36103;54.176;12.070;2022-11-20T04:32:41;1.87;;;1.00;;
50213;SDS011;36103;54.176;12.070;2022-11-20T04:33:42;1.50;;;1.00;;
50213;SDS011;36103;54.176;12.070;2022-11-20T04:34:43;1.40;;;1.20;;
50213;SDS011;36103;54.176;12.070;2022-11-20T04:35:45;1.57;;;0.90;;
50213;SDS011;36103;54.176;12.070;2022-11-20T04:36:46;1.10;;;0.90;;
50213;SDS011;36103;54.176;12.070;2022-11-20T04:37:50;1.50;;;1.23;;
50213;SDS011;36103;54.176;12.070;2022-11-20T04:38:51;2.13;;;1.20;;
50213;SDS011;36103;54.176;12.070;2022-11-20T04:39:53;2.00;;;1.03;;
50213;SDS011;36103;54.176;12.070;2022-11-20T04:40:55;0.87;;;0.87;;
50213;SDS011;36103;54.176;12.070;2022-11-20T04:41:57;1.20;;;0.73;;
50213;SDS011;36103;54.176;12.070;2022-11-20T04:43:14;1.07;;;0.97;;
50213;SDS011;36103;54.176;12.070;2022-11-20T04:44:15;1.30;;;1.10;;
50213;SDS011;36103;54.176;12.070;2022-11-20T04:45:16;1.20;;;1.03;;
50213;SDS011;36103;54.176;12.070;2022-11-20T04:46:17;1.80;;;1.10;;
50213;SDS011;36103;54.176;12.070;2022-11-20T04:47:19;0.77;;;0.77;;
50213;SDS011;36103;54.176;12.070;2022-11-20T04:48:20;0.93;;;0.80;;
50213;SDS011;36103;54.176;12.070;2022-11-20T04:49:21;1.20;;;1.10;;
50213;SDS011;36103;54.176;12.070;2022-11-20T04:50:22;1.50;;;1.00;;
50213;SDS011;36103;54.176;12.070;2022-11-20T04:51:23;1.43;;;1.10;;
50213;SDS011;36103;54.176;12.070;2022-11-20T04:52:24;1.20;;;0.90;;
50213;SDS011;36103;54.176;12.070;2022-11-20T04:53:25;0.87;;;0.87;;
50213;SDS011;36103;54.176;12.070;2022-11-20T04:54:26;1.03;;;0.90;;
50213;SDS011;36103;54.176;12.070;2022-11-20T04:55:27;1.77;;;1.10;;
50213;SDS011;36103;54.176;12.070;2022-11-20T04:56:28;1.27;;;1.10;;
50213;SDS011;36103;54.176;12.070;2022-11-20T04:57:29;1.20;;;1.00;;
50213;SDS011;36103;54.176;12.070;2022-11-20T04:58:31;1.93;;;1.27;;
50213;SDS011;36103;54.176;12.070;2022-11-20T04:59:32;0.93;;;0.73;;
50213;SDS011;36103;54.176;12.070;2022-11-20T05:00:33;1.10;;;1.00;;
50213;SDS011;36103;54.176;12.070;2022-11-20T05:01:34;1.17;;;0.80;;
50213;SDS011;36103;54.176;12.070;2022-11-20T05:02:35;1.23;;;1.13;;
50213;SDS011;36103;54.176;12.070;2022-11-20T05:03:35;1.20;;;1.10;;
50213;SDS011;36103;54.176;12.070;2022-11-20T05:04:37;0.93;;;0.87;;
50213;SDS011;36103;54.176;12.070;2022-11-20T05:05:37;0.70;;;0.70;;
50213;SDS011;36103;54.176;12.070;2022-11-20T05:06:39;1.13;;;0.93;;
50213;SDS011;36103;54.176;12.070;2022-11-20T05:07:39;1.50;;;1.00;;
50213;SDS011;36103;54.176;12.070;2022-11-20T05:08:41;1.10;;;1.00;;
50213;SDS011;36103;54.176;12.070;2022-11-20T05:09:41;1.63;;;1.10;;
50213;SDS011;36103;54.176;12.070;2022-11-20T05:10:43;0.90;;;0.80;;
50213;SDS011;36103;54.176;12.070;2022-11-20T05:11:43;0.73;;;0.73;;
50213;SDS011;36103;54.176;12.070;2022-11-20T05:12:45;1.60;;;0.80;;
50213;SDS011;36103;54.176;12.070;2022-11-20T05:13:47;1.77;;;0.90;;
50213;SDS011;36103;54.176;12.070;2022-11-20T05:14:48;1.30;;;1.00;;
50213;SDS011;36103;54.176;12.070;2022-11-20T05:15:49;1.17;;;0.80;;
50213;SDS011;36103;54.176;12.070;2022-11-20T05:16:50;1.00;;;0.90;;
50213;SDS011;36103;54.176;12.070;2022-11-20T05:17:51;0.83;;;0.80;;
50213;SDS011;36103;54.176;12.070;2022-11-20T05:18:53;1.20;;;0.83;;
50213;SDS011;36103;54.176;12.070;2022-11-20T05:19:54;1.00;;;0.80;;
50213;SDS011;36103;54.176;12.070;2022-11-20T05:20:55;0.70;;;0.70;;
50213;SDS011;36103;54.176;12.070;2022-11-20T05:21:56;0.80;;;0.80;;
50213;SDS011;36103;54.176;12.070;2022-11-20T05:22:57;1.17;;;0.77;;
50213;SDS011;36103;54.176;12.070;2022-11-20T05:23:58;1.17;;;0.90;;
50213;SDS011;36103;54.176;12.070;2022-11-20T05:24:59;1.77;;;0.90;;
50213;SDS011;36103;54.176;12.070;2022-11-20T05:26:00;1.60;;;1.10;;
50213;SDS011;36103;54.176;12.070;2022-11-20T05:27:02;0.87;;;0.80;;
50213;SDS011;36103;54.176;12.070;2022-11-20T05:28:03;1.03;;;0.80;;
50213;SDS011;36103;54.176;12.070;2022-11-20T05:29:05;0.90;;;0.80;;
50213;SDS011;36103;54.176;12.070;2022-11-20T05:30:06;1.03;;;0.90;;
50213;SDS011;36103;54.176;12.070;2022-11-20T05:31:09;1.00;;;0.77;;
50213;SDS011;36103;54.176;12.070;2022-11-20T05:32:10;0.87;;;0.80;;
50213;SDS011;36103;54.176;12.070;2022-11-20T05:33:12;1.87;;;0.90;;
50213;SDS011;36103;54.176;12.070;2022-11-20T05:34:12;1.27;;;0.90;;
50213;SDS011;36103;54.176;12.070;2022-11-20T05:35:14;1.20;;;0.90;;
50213;SDS011;36103;54.176;12.070;2022-11-20T05:36:17;1.00;;;0.87;;
50213;SDS011;36103;54.176;12.070;2022-11-20T05:37:19;1.10;;;1.00;;
50213;SDS011;36103;54.176;12.070;2022-11-20T05:38:19;1.00;;;0.90;;
50213;SDS011;36103;54.176;12.070;2022-11-20T05:39:21;1.07;;;0.80;;
50213;SDS011;36103;54.176;12.070;2022-11-20T05:40:21;1.40;;;0.90;;
50213;SDS011;36103;54.176;12.070;2022-11-20T05:41:22;2.10;;;0.93;;
50213;SDS011;36103;54.176;12.070;2022-11-20T05:42:23;1.13;;;0.80;;
50213;SDS011;36103;54.176;12.070;2022-11-20T05:43:33;1.60;;;0.90;;
50213;SDS011;36103;54.176;12.070;2022-11-20T05:44:36;1.20;;;0.70;;
50213;SDS011;36103;54.176;12.070;2022-11-20T05:45:37;1.00;;;0.83;;
50213;SDS011;36103;54.176;12.070;2022-11-20T05:46:37;1.13;;;1.00;;
50213;SDS011;36103;54.176;12.070;2022-11-20T05:47:39;0.80;;;0.80;;
50213;SDS011;36103;54.176;12.070;2022-11-20T05:48:40;1.30;;;1.00;;
50213;SDS011;36103;54.176;12.070;2022-11-20T05:49:42;0.80;;;0.80;;
50213;SDS011;36103;54.176;12.070;2022-11-20T05:50:42;1.00;;;0.90;;
50213;SDS011;36103;54.176;12.070;2022-11-20T05:51:44;1.63;;;0.90;;
50213;SDS011;36103;54.176;12.070;2022-11-20T05:52:44;1.47;;;1.00;;
50213;SDS011;36103;54.176;12.070;2022-11-20T05:53:46;1.47;;;0.90;;
50213;SDS011;36103;54.176;12.070;2022-11-20T05:54:46;0.93;;;0.83;;
50213;SDS011;36103;54.176;12.070;2022-11-20T05:55:55;1.20;;;0.70;;
50213;SDS011;36103;54.176;12.070;2022-11-20T05:56:56;0.80;;;0.73;;
50213;SDS011;36103;54.176;12.070;2022-11-20T05:57:57;0.77;;;0.60;;
50213;SDS011;36103;54.176;12.070;2022-11-20T05:58:58;0.90;;;0.80;;
50213;SDS011;36103;54.176;12.070;2022-11-20T06:00:01;1.00;;;0.90;;
50213;SDS011;36103;54.176;12.070;2022-11-20T06:01:05;0.87;;;0.83;;
50213;SDS011;36103;54.176;12.070;2022-11-20T06:02:08;1.37;;;0.77;;
50213;SDS011;36103;54.176;12.070;2022-11-20T06:03:08;0.60;;;0.60;;
50213;SDS011;36103;54.176;12.070;2022-11-20T06:04:10;1.20;;;1.00;;
50213;SDS011;36103;54.176;12.070;2022-11-20T06:05:10;1.50;;;1.00;;
50213;SDS011;36103;54.176;12.070;2022-11-20T06:06:12;1.40;;;0.97;;
50213;SDS011;36103;54.176;12.070;2022-11-20T06:07:13;1.00;;;0.90;;
50213;SDS011;36103;54.176;12.070;2022-11-20T06:08:14;1.07;;;0.80;;
50213;SDS011;36103;54.176;12.070;2022-11-20T06:09:15;0.70;;;0.70;;